Main page
METAR-TAF:

METAR-TAF

Airports :

Ponta Delgada, Azores, Portugal

João Paulo II Airport

latitude: 37-44N, longitude: 025-42W, elevation: 71 m

Current weather observation

The report was made 32 minutes ago, at 11:30 UTC
Wind 12 kt from the West
Temperature 21°C
Humidity 88%
Pressure 1020 hPa
Visibility 10 km or more
Few clouds at a height of 700 ft
Scattered clouds at a height of 1200 ft

METAR: LPPD 261130Z 27012KT 9999 FEW007 SCT012 21/19 Q1020

Time: 12:02 (12:02 UTC)


TAF: missing

Weather observations and forecasts of more than 4000 airports (METAR and TAF reports).

The available stations are represented by yellow and red dots on the map.

Hover mouse over dot to see the name of the station.

Then click to see weather observations and forecasts.

To change the map : click on the green buttons with a black cross to zoom in, on the green button with a dash to zoom out, or on the green arrows for adjacent maps.


METAR-TAF: